createdAt,value
2018-11-23T00:01:47.824Z,17.45
2018-11-23T00:07:42.810Z,21.76
2018-11-23T00:13:37.856Z,21.73
2018-11-23T00:19:32.827Z,21.96
2018-11-23T00:25:27.835Z,19.77
2018-11-23T00:31:22.828Z,16.18
2018-11-23T00:37:17.839Z,14.53
2018-11-23T00:43:12.838Z,16.58
2018-11-23T00:49:07.849Z,17.09
2018-11-23T00:55:02.865Z,23.7
2018-11-23T01:00:57.946Z,15.76
2018-11-23T01:06:52.843Z,14.63
2018-11-23T01:12:47.856Z,16.07
2018-11-23T01:18:42.862Z,17.65
2018-11-23T01:24:37.855Z,17.8
2018-11-23T01:30:32.866Z,17.62
2018-11-23T01:36:27.902Z,17.18
2018-11-23T01:42:22.867Z,13.77
2018-11-23T01:48:17.877Z,12.19
2018-11-23T01:54:12.897Z,13.86
2018-11-23T02:00:07.881Z,14.12
2018-11-23T02:06:02.915Z,12.83
2018-11-23T02:11:57.886Z,10.95
2018-11-23T02:17:52.887Z,12.13
2018-11-23T02:23:47.895Z,19.96
2018-11-23T02:29:42.906Z,18.72
2018-11-23T02:35:37.937Z,16.68
2018-11-23T02:41:32.894Z,14.64
2018-11-23T02:47:27.900Z,14.93
2018-11-23T02:53:22.923Z,14.67
2018-11-23T02:59:17.909Z,17.03
2018-11-23T03:05:12.943Z,15.75
2018-11-23T03:11:07.982Z,11.89
2018-11-23T03:17:02.920Z,11.93
2018-11-23T03:22:57.926Z,11.8
2018-11-23T03:28:52.946Z,10.69
2018-11-23T03:34:47.958Z,12.61
2018-11-23T03:40:42.953Z,18.11
2018-11-23T03:46:37.927Z,18.02
2018-11-23T03:52:32.946Z,18.79
2018-11-23T03:58:27.948Z,15
2018-11-23T04:04:23.011Z,17.14
2018-11-23T04:10:17.966Z,16.03
2018-11-23T04:16:12.976Z,15.42
2018-11-23T04:22:07.959Z,17.01
2018-11-23T04:28:02.958Z,16.08
2018-11-23T04:33:57.965Z,22.87
2018-11-23T04:39:52.985Z,45.52
2018-11-23T04:45:47.974Z,48.91
2018-11-23T04:51:43.023Z,29.49
2018-11-23T04:57:38.006Z,18.46
2018-11-23T05:03:32.997Z,18.21
2018-11-23T05:09:27.983Z,15.73
2018-11-23T05:15:22.997Z,15.93
2018-11-23T05:21:18.020Z,17.4
2018-11-23T05:27:12.993Z,19.4
2018-11-23T05:33:07.979Z,18.66
2018-11-23T05:39:02.989Z,18.33
2018-11-23T05:44:58.010Z,15.58
2018-11-23T05:50:53.011Z,15.88
2018-11-23T05:56:48.005Z,16.4
2018-11-23T06:02:43.015Z,17.22
2018-11-23T06:08:38.053Z,19.93
2018-11-23T06:14:33.014Z,20.63
2018-11-23T06:20:28.018Z,20.42
2018-11-23T06:26:23.030Z,32.4
2018-11-23T06:32:18.018Z,31.64
2018-11-23T06:38:13.020Z,26.47
2018-11-23T06:44:08.026Z,17.76
2018-11-23T06:50:03.043Z,15.07
2018-11-23T06:55:58.032Z,15.9
2018-11-23T07:01:53.057Z,16.47
2018-11-23T07:07:48.035Z,20.31
2018-11-23T07:13:43.037Z,21.86
2018-11-23T07:19:38.053Z,28.98
2018-11-23T07:25:33.042Z,26.83
2018-11-23T07:31:28.042Z,27.61
2018-11-23T07:37:23.073Z,24.97
2018-11-23T07:43:18.127Z,26.57
2018-11-23T07:49:13.090Z,23.35
2018-11-23T07:55:08.081Z,17.28
2018-11-23T08:01:03.063Z,18.69
2018-11-23T08:06:58.057Z,18.33
2018-11-23T08:12:53.076Z,18.66
2018-11-23T08:18:48.101Z,23.27
2018-11-23T08:24:43.083Z,23.82
2018-11-23T08:30:38.067Z,26.34
2018-11-23T08:36:33.093Z,26.4
2018-11-23T08:42:28.106Z,19.09
2018-11-23T08:48:23.091Z,20.9
2018-11-23T08:54:18.127Z,23
2018-11-23T09:00:13.089Z,25.8
2018-11-23T09:06:08.109Z,21.07
2018-11-23T09:12:03.118Z,24.27
2018-11-23T09:17:58.132Z,21.26
2018-11-23T09:23:53.113Z,24.93
2018-11-23T09:29:48.176Z,20.75
2018-11-23T09:35:43.105Z,22.97
2018-11-23T09:41:38.170Z,22.31
2018-11-23T09:47:33.131Z,22.8
2018-11-23T09:53:28.130Z,19.66
2018-11-23T09:59:23.126Z,21.35
2018-11-23T10:05:18.243Z,17.59
2018-11-23T10:11:13.157Z,18.35
2018-11-23T10:17:08.137Z,18.16
2018-11-23T10:23:03.186Z,19.44
2018-11-23T10:28:58.178Z,17.87
2018-11-23T10:34:53.173Z,21.05
2018-11-23T10:40:48.153Z,25.38
2018-11-23T10:46:43.156Z,23.82
2018-11-23T10:52:38.177Z,23.57
2018-11-23T10:58:33.166Z,27.36
2018-11-23T11:04:28.181Z,22.76
2018-11-23T11:10:23.170Z,20.06
2018-11-23T11:16:18.184Z,19.77
2018-11-23T11:22:13.159Z,21.75
2018-11-23T11:28:08.180Z,21.85
2018-11-23T11:34:03.167Z,22.73
2018-11-23T11:39:58.193Z,24.19
2018-11-23T11:45:53.236Z,28.26
2018-11-23T11:51:48.191Z,42.09
2018-11-23T11:57:43.211Z,30.54
2018-11-23T12:03:38.184Z,30.6
2018-11-23T12:09:33.193Z,21.77
2018-11-23T12:15:28.202Z,19.62
2018-11-23T12:21:23.206Z,16.3
2018-11-23T12:27:18.207Z,16.93
2018-11-23T12:33:13.227Z,13.93
2018-11-23T12:39:08.228Z,14.77
2018-11-23T12:45:03.231Z,14.43
2018-11-23T12:50:58.240Z,12.57
2018-11-23T12:56:53.229Z,14.13
2018-11-23T13:02:48.220Z,15.6
2018-11-23T13:08:43.215Z,15.82
2018-11-23T13:14:38.261Z,15.36
2018-11-23T13:20:33.263Z,12.99
2018-11-23T13:26:28.247Z,14.01
2018-11-23T13:32:23.291Z,14.36
2018-11-23T13:38:18.244Z,19.86
2018-11-23T13:44:13.258Z,26.46
2018-11-23T13:50:08.233Z,20.72
2018-11-23T13:56:03.225Z,21.08
2018-11-23T14:01:58.276Z,23.34
2018-11-23T14:07:53.248Z,17.19
2018-11-23T14:13:48.266Z,13.14
2018-11-23T14:19:43.286Z,17.43
2018-11-23T14:25:38.270Z,18.32
2018-11-23T14:31:33.266Z,20.51
2018-11-23T14:37:28.291Z,27.05
2018-11-23T14:43:23.284Z,22.08
2018-11-23T14:49:18.288Z,33.19
2018-11-23T14:55:13.280Z,21.03
2018-11-23T15:01:08.282Z,21.19
2018-11-23T15:07:03.370Z,25.33
2018-11-23T15:12:58.312Z,31.91
2018-11-23T15:18:53.303Z,31.41
2018-11-23T15:24:48.308Z,26.04
2018-11-23T15:30:43.308Z,24
2018-11-23T15:36:38.366Z,28.13
2018-11-23T15:42:33.330Z,25.09
2018-11-23T15:48:28.312Z,26.28
2018-11-23T15:54:23.340Z,15.74
2018-11-23T16:00:18.309Z,17.83
2018-11-23T16:06:13.322Z,11.16
2018-11-23T16:12:08.341Z,8.27
2018-11-23T16:18:03.333Z,4.85
2018-11-23T16:23:58.331Z,5.5
2018-11-23T16:29:53.356Z,8
2018-11-23T16:35:48.362Z,14.15
2018-11-23T16:41:43.381Z,10.69
2018-11-23T16:47:38.358Z,13.64
2018-11-23T16:53:33.352Z,10.35
2018-11-23T16:59:28.365Z,8.54
2018-11-23T17:05:23.365Z,5.94
2018-11-23T17:11:18.358Z,6.14
2018-11-23T17:17:13.405Z,4.03
2018-11-23T17:23:08.370Z,6.89
2018-11-23T17:29:03.386Z,8.15
2018-11-23T17:34:58.367Z,35.35
2018-11-23T17:40:53.424Z,21.37
2018-11-23T17:46:48.396Z,17.42
2018-11-23T17:52:43.387Z,15.53
2018-11-23T17:58:38.382Z,6.86
2018-11-23T18:04:33.382Z,12.12
2018-11-23T18:10:28.370Z,16.43
2018-11-23T18:16:23.437Z,10.1
2018-11-23T18:22:18.380Z,16.83
2018-11-23T18:28:13.387Z,9.51
2018-11-23T18:34:08.420Z,8.23
2018-11-23T18:40:03.430Z,9.93
2018-11-23T18:45:58.403Z,12.6
2018-11-23T18:51:53.458Z,15.59
2018-11-23T18:57:48.421Z,15.48
2018-11-23T19:03:43.429Z,13.2
2018-11-23T19:09:38.410Z,11.8
2018-11-23T19:15:33.441Z,13.63
2018-11-23T19:21:28.474Z,13.42
2018-11-23T19:27:23.441Z,14.39
2018-11-23T19:33:18.437Z,13.35
2018-11-23T19:39:13.436Z,30.64
2018-11-23T19:45:08.421Z,33.41
2018-11-23T19:51:03.481Z,20.89
2018-11-23T19:56:58.420Z,14.64
2018-11-23T20:02:53.456Z,14.95
2018-11-23T20:08:48.442Z,21.69
2018-11-23T20:14:43.449Z,15.64
2018-11-23T20:20:38.442Z,17.61
2018-11-23T20:26:33.446Z,15.79
2018-11-23T20:32:28.479Z,16.19
2018-11-23T20:38:23.508Z,16.87
2018-11-23T20:44:18.503Z,19.85
2018-11-23T20:50:13.445Z,13.28
2018-11-23T20:56:08.473Z,14.38
2018-11-23T21:02:03.514Z,17.74
2018-11-23T21:07:58.478Z,11.79
2018-11-23T21:13:53.484Z,12.45
2018-11-23T21:19:48.470Z,14.67
2018-11-23T21:25:43.491Z,15.44
2018-11-23T21:31:38.554Z,18.08
2018-11-23T21:37:33.486Z,16.57
2018-11-23T21:43:28.549Z,28.02
2018-11-23T21:49:23.529Z,16.73
2018-11-23T21:55:18.514Z,13.84
2018-11-23T22:01:13.565Z,14.2
2018-11-23T22:07:08.512Z,15.44
2018-11-23T22:13:03.535Z,16.09
2018-11-23T22:18:58.526Z,16.02
2018-11-23T22:24:53.528Z,21.59
2018-11-23T22:30:48.539Z,15.63
2018-11-23T22:36:43.520Z,15.14
2018-11-23T22:42:38.518Z,12.12
2018-11-23T22:48:33.541Z,23.25
2018-11-23T22:54:28.524Z,10.54
2018-11-23T23:00:23.552Z,10.74
2018-11-23T23:06:18.555Z,9.93
2018-11-23T23:12:13.545Z,9.44
2018-11-23T23:18:08.531Z,9.53
2018-11-23T23:24:06.828Z,10.67
2018-11-23T23:29:58.556Z,11.17
2018-11-23T23:35:53.552Z,11.19
2018-11-23T23:41:48.580Z,14.82
2018-11-23T23:47:43.558Z,12.92
2018-11-23T23:53:38.578Z,11.35
2018-11-23T23:59:33.569Z,9.37
